createdAt,value
2023-05-18T00:00:02.830Z,8.54
2023-05-18T00:02:29.338Z,8.51
2023-05-18T00:04:55.950Z,8.48
2023-05-18T00:07:22.568Z,8.43
2023-05-18T00:09:49.060Z,8.40
2023-05-18T00:12:15.640Z,8.37
2023-05-18T00:14:42.058Z,8.33
2023-05-18T00:17:08.491Z,8.32
2023-05-18T00:19:35.020Z,8.29
2023-05-18T00:22:02.277Z,8.25
2023-05-18T00:24:28.861Z,8.21
2023-05-18T00:26:55.375Z,8.17
2023-05-18T00:29:21.888Z,8.11
2023-05-18T00:31:48.466Z,8.09
2023-05-18T00:34:16.715Z,8.04
2023-05-18T00:36:43.361Z,7.98
2023-05-18T00:39:10.307Z,7.98
2023-05-18T00:41:36.866Z,7.97
2023-05-18T00:44:04.745Z,7.95
2023-05-18T00:46:31.937Z,7.92
2023-05-18T00:48:59.115Z,7.88
2023-05-18T00:51:26.296Z,7.84
2023-05-18T00:53:53.923Z,7.80
2023-05-18T00:56:23.678Z,7.79
2023-05-18T00:58:52.848Z,7.74
2023-05-18T01:01:20.212Z,7.69
2023-05-18T01:03:46.827Z,7.67
2023-05-18T01:06:14.778Z,7.62
2023-05-18T01:08:42.877Z,7.61
2023-05-18T01:11:24.854Z,7.60
2023-05-18T01:14:03.279Z,7.56
2023-05-18T01:16:34.578Z,7.54
2023-05-18T01:19:14.069Z,7.52
2023-05-18T01:21:55.576Z,7.52
2023-05-18T01:24:48.507Z,7.50
2023-05-18T01:27:17.778Z,7.49
2023-05-18T01:29:48.602Z,7.48
2023-05-18T01:32:20.227Z,7.46
2023-05-18T01:34:47.482Z,7.39
2023-05-18T01:37:14.127Z,7.35
2023-05-18T01:39:42.059Z,7.34
2023-05-18T01:42:14.557Z,7.31
2023-05-18T01:44:50.899Z,7.27
2023-05-18T01:47:18.289Z,7.20
2023-05-18T01:50:05.050Z,7.15
2023-05-18T01:52:37.687Z,7.12
2023-05-18T01:55:06.437Z,7.10
2023-05-18T01:57:35.058Z,7.08
2023-05-18T02:00:02.521Z,7.08
2023-05-18T02:02:29.129Z,7.06
2023-05-18T02:04:56.179Z,7.03
2023-05-18T02:07:22.718Z,7.00
2023-05-18T02:09:49.487Z,7.00
2023-05-18T02:12:15.961Z,6.97
2023-05-18T02:14:42.509Z,6.94
2023-05-18T02:17:09.057Z,6.93
2023-05-18T02:19:38.690Z,6.92
2023-05-18T02:22:07.074Z,6.89
2023-05-18T02:24:34.421Z,6.88
2023-05-18T02:27:01.472Z,6.84
2023-05-18T02:29:27.965Z,6.83
2023-05-18T02:31:54.473Z,6.84
2023-05-18T02:34:22.817Z,6.82
2023-05-18T02:36:49.441Z,6.80
2023-05-18T02:39:16.191Z,6.75
2023-05-18T02:41:42.620Z,6.70
2023-05-18T02:44:09.125Z,6.60
2023-05-18T02:46:35.651Z,6.59
2023-05-18T02:49:02.137Z,6.54
2023-05-18T02:51:29.894Z,6.51
2023-05-18T02:53:57.463Z,6.48
2023-05-18T02:56:24.753Z,6.46
2023-05-18T02:58:58.417Z,6.42
2023-05-18T03:01:27.102Z,6.36
2023-05-18T03:03:54.391Z,6.31
2023-05-18T03:06:26.460Z,6.27
2023-05-18T03:08:56.161Z,6.25
2023-05-18T03:11:23.324Z,6.25
2023-05-18T03:13:50.034Z,6.24
2023-05-18T03:16:16.542Z,6.20
2023-05-18T03:18:43.140Z,6.16
2023-05-18T03:21:10.025Z,6.11
2023-05-18T03:23:36.498Z,6.09
2023-05-18T03:26:03.802Z,6.03
2023-05-18T03:28:30.757Z,6.01
2023-05-18T03:30:57.859Z,5.97
2023-05-18T03:33:24.485Z,5.94
2023-05-18T03:35:52.191Z,5.89
2023-05-18T03:38:18.783Z,5.84
2023-05-18T03:40:45.388Z,5.82
2023-05-18T03:43:11.821Z,5.79
2023-05-18T03:45:38.262Z,5.77
2023-05-18T03:48:04.934Z,5.74
2023-05-18T03:50:31.790Z,5.73
2023-05-18T03:52:58.276Z,5.71
2023-05-18T03:55:24.770Z,5.70
2023-05-18T03:57:51.282Z,5.69
2023-05-18T04:00:18.125Z,5.67
2023-05-18T04:02:44.762Z,5.67
2023-05-18T04:05:11.270Z,5.67
2023-05-18T04:07:43.886Z,5.66
2023-05-18T04:10:12.089Z,5.64
2023-05-18T04:12:38.853Z,5.65
2023-05-18T04:15:05.863Z,5.62
2023-05-18T04:17:33.443Z,5.63
2023-05-18T04:19:59.950Z,5.64
2023-05-18T04:22:29.784Z,5.65
2023-05-18T04:24:57.379Z,5.63
2023-05-18T04:27:23.905Z,5.65
2023-05-18T04:29:50.405Z,5.62
2023-05-18T04:32:18.449Z,5.64
2023-05-18T04:34:49.423Z,5.64
2023-05-18T04:37:17.933Z,5.68
2023-05-18T04:39:44.402Z,5.71
2023-05-18T04:42:11.003Z,5.73
2023-05-18T04:44:39.111Z,5.73
2023-05-18T04:47:08.380Z,5.74
2023-05-18T04:49:35.017Z,5.75
2023-05-18T04:52:01.533Z,5.75
2023-05-18T04:54:32.512Z,5.76
2023-05-18T04:56:59.354Z,5.80
2023-05-18T04:59:26.530Z,5.81
2023-05-18T05:01:53.663Z,5.87
2023-05-18T05:04:21.626Z,5.91
2023-05-18T05:06:48.174Z,5.96
2023-05-18T05:09:14.855Z,5.99
2023-05-18T05:11:41.995Z,6.02
2023-05-18T05:14:08.501Z,6.06
2023-05-18T05:16:35.723Z,6.11
2023-05-18T05:19:02.598Z,6.16
2023-05-18T05:21:29.112Z,6.21
2023-05-18T05:23:55.637Z,6.29
2023-05-18T05:26:22.254Z,6.36
2023-05-18T05:28:48.689Z,6.46
2023-05-18T05:31:15.309Z,6.54
2023-05-18T05:33:42.081Z,6.64
2023-05-18T05:36:08.838Z,6.75
2023-05-18T05:38:35.272Z,6.86
2023-05-18T05:41:01.941Z,6.98
2023-05-18T05:43:28.340Z,7.08
2023-05-18T05:45:54.901Z,7.20
2023-05-18T05:48:21.492Z,7.29
2023-05-18T05:50:48.018Z,7.39
2023-05-18T05:53:17.818Z,7.47
2023-05-18T05:55:44.376Z,7.54
2023-05-18T05:58:10.944Z,7.60
2023-05-18T06:00:37.401Z,7.58
2023-05-18T06:03:03.981Z,7.66
2023-05-18T06:05:30.675Z,7.74
2023-05-18T06:07:57.648Z,7.85
2023-05-18T06:10:24.144Z,7.94
2023-05-18T06:12:50.658Z,8.05
2023-05-18T06:15:19.219Z,8.13
2023-05-18T06:17:45.855Z,8.21
2023-05-18T06:20:13.671Z,8.32
2023-05-18T06:22:40.178Z,8.41
2023-05-18T06:25:06.822Z,8.48
2023-05-18T06:27:33.322Z,8.57
2023-05-18T06:29:59.744Z,8.65
2023-05-18T06:32:27.447Z,8.75
2023-05-18T06:34:53.983Z,8.84
2023-05-18T06:37:21.364Z,8.89
2023-05-18T06:39:47.849Z,8.98
2023-05-18T06:42:14.288Z,9.05
2023-05-18T06:44:40.759Z,9.10
2023-05-18T06:47:07.623Z,9.16
2023-05-18T06:49:34.075Z,9.25
2023-05-18T06:52:00.575Z,9.35
2023-05-18T06:54:29.398Z,9.42
2023-05-18T06:56:55.882Z,9.52
2023-05-18T06:59:23.156Z,9.63
2023-05-18T07:01:49.618Z,9.71
2023-05-18T07:04:16.275Z,9.77
2023-05-18T07:06:42.922Z,9.86
2023-05-18T07:09:09.367Z,9.93
2023-05-18T07:11:35.820Z,9.99
2023-05-18T07:14:02.252Z,10.13
2023-05-18T07:16:29.033Z,10.29
2023-05-18T07:18:57.779Z,10.44
2023-05-18T07:21:25.162Z,10.56
2023-05-18T07:23:52.724Z,10.69
2023-05-18T07:26:19.777Z,10.77
2023-05-18T07:28:47.746Z,10.84
2023-05-18T07:31:16.339Z,10.92
2023-05-18T07:33:43.987Z,10.99
2023-05-18T07:36:10.864Z,11.07
2023-05-18T07:38:37.471Z,11.14
2023-05-18T07:41:03.946Z,11.19
2023-05-18T07:43:30.847Z,11.26
2023-05-18T07:45:57.284Z,11.34
2023-05-18T07:48:23.838Z,11.43
2023-05-18T07:50:50.290Z,11.48
2023-05-18T07:53:16.794Z,11.47
2023-05-18T07:55:43.337Z,11.56
2023-05-18T07:58:10.593Z,11.59
2023-05-18T08:00:37.461Z,11.68
2023-05-18T08:03:04.502Z,11.77
2023-05-18T08:05:31.407Z,11.85
2023-05-18T08:07:58.077Z,11.93
2023-05-18T08:10:24.746Z,11.94
2023-05-18T08:12:51.649Z,11.99
2023-05-18T08:15:18.251Z,12.07
2023-05-18T08:17:44.771Z,12.15
2023-05-18T08:20:11.834Z,12.26
2023-05-18T08:22:38.355Z,12.33
2023-05-18T08:25:05.231Z,12.38
2023-05-18T08:27:31.793Z,12.43
2023-05-18T08:29:58.335Z,12.53
2023-05-18T08:32:25.421Z,12.61
2023-05-18T08:34:51.941Z,12.62
2023-05-18T08:37:18.462Z,12.67
2023-05-18T08:39:46.211Z,12.79
2023-05-18T08:42:49.492Z,12.82
2023-05-18T08:45:48.831Z,12.86
2023-05-18T08:48:16.669Z,12.95
2023-05-18T08:50:44.344Z,13.00
2023-05-18T08:53:12.187Z,13.05
2023-05-18T08:55:40.294Z,13.21
2023-05-18T08:58:09.087Z,13.37
2023-05-18T09:00:36.134Z,13.47
2023-05-18T09:03:04.973Z,13.52
2023-05-18T09:05:31.809Z,13.56
2023-05-18T09:07:59.243Z,13.61
2023-05-18T09:10:26.256Z,13.67
2023-05-18T09:12:56.144Z,13.73
2023-05-18T09:15:25.225Z,13.83
2023-05-18T09:17:52.119Z,13.94
2023-05-18T09:20:20.235Z,14.10
2023-05-18T09:22:49.396Z,14.21
2023-05-18T09:25:17.090Z,14.33
2023-05-18T09:27:43.924Z,14.46
2023-05-18T09:30:11.920Z,14.55
2023-05-18T09:32:38.772Z,14.62
2023-05-18T09:35:06.792Z,14.72
2023-05-18T09:37:33.937Z,14.78
2023-05-18T09:40:04.944Z,14.87
2023-05-18T09:42:39.580Z,15.09
2023-05-18T09:45:17.710Z,15.29
2023-05-18T09:47:44.387Z,15.28
2023-05-18T09:50:11.473Z,15.37
2023-05-18T09:52:45.309Z,15.40
2023-05-18T09:55:12.908Z,15.59
2023-05-18T09:57:49.958Z,15.81
2023-05-18T10:00:19.304Z,15.83
2023-05-18T10:02:49.085Z,15.94
2023-05-18T10:05:27.332Z,15.95
2023-05-18T10:07:55.081Z,16.13
2023-05-18T10:10:24.143Z,16.31
2023-05-18T10:12:51.127Z,16.49
2023-05-18T10:15:20.790Z,16.80
2023-05-18T10:17:48.630Z,17.13
2023-05-18T10:20:19.686Z,17.38
2023-05-18T10:22:48.047Z,17.67
2023-05-18T10:25:21.036Z,17.92
2023-05-18T10:27:56.371Z,18.11
2023-05-18T10:30:23.100Z,18.25
2023-05-18T10:32:51.349Z,18.29
2023-05-18T10:35:18.342Z,18.37
2023-05-18T10:37:50.327Z,18.36
2023-05-18T10:40:18.179Z,18.21
2023-05-18T10:42:46.384Z,18.03
2023-05-18T10:45:14.071Z,17.84
2023-05-18T10:47:43.380Z,17.71
2023-05-18T10:50:10.702Z,17.45
2023-05-18T10:52:38.075Z,17.40
2023-05-18T10:55:06.842Z,17.51
2023-05-18T10:57:38.340Z,17.80
2023-05-18T11:00:08.139Z,18.12
2023-05-18T11:02:35.143Z,18.44
2023-05-18T11:05:05.702Z,18.69
2023-05-18T11:07:34.000Z,18.94
2023-05-18T11:10:09.187Z,19.06
2023-05-18T11:12:38.152Z,18.98
2023-05-18T11:15:08.284Z,18.90
2023-05-18T11:17:35.152Z,19.07
2023-05-18T11:20:05.775Z,19.33
2023-05-18T11:22:57.388Z,19.60
2023-05-18T11:25:32.999Z,19.85
2023-05-18T11:28:03.264Z,20.12
2023-05-18T11:30:45.121Z,20.46
2023-05-18T11:33:14.547Z,20.70
2023-05-18T11:36:03.253Z,20.86
2023-05-18T11:38:49.536Z,21.21
2023-05-18T11:41:29.095Z,21.40
2023-05-18T11:44:06.724Z,21.48
2023-05-18T11:46:33.854Z,21.48
2023-05-18T11:49:09.725Z,21.59
2023-05-18T11:52:02.480Z,21.56
2023-05-18T11:54:33.240Z,21.36
2023-05-18T11:56:59.851Z,21.51
2023-05-18T11:59:46.390Z,21.65
2023-05-18T12:02:19.646Z,21.79
2023-05-18T12:04:51.955Z,22.02
2023-05-18T12:07:22.561Z,22.12
2023-05-18T12:09:49.555Z,22.23
2023-05-18T12:12:20.183Z,22.39
2023-05-18T12:14:53.845Z,22.56
2023-05-18T12:17:20.482Z,22.78
2023-05-18T12:19:48.664Z,22.97
2023-05-18T12:22:15.819Z,22.95
2023-05-18T12:24:44.146Z,22.99
2023-05-18T12:27:12.087Z,23.00
2023-05-18T12:29:40.407Z,22.72
2023-05-18T12:32:12.429Z,22.72
2023-05-18T12:34:39.565Z,22.88
2023-05-18T12:37:07.939Z,22.95
2023-05-18T12:39:35.136Z,23.08
2023-05-18T12:42:15.267Z,23.23
2023-05-18T12:44:45.481Z,23.24
2023-05-18T12:47:12.748Z,23.34
2023-05-18T12:49:48.016Z,23.34
2023-05-18T12:52:16.855Z,23.37
2023-05-18T12:55:00.824Z,23.52
2023-05-18T12:57:27.864Z,23.56
2023-05-18T12:59:54.845Z,23.67
2023-05-18T13:02:31.769Z,23.67
2023-05-18T13:05:10.245Z,23.88
2023-05-18T13:07:42.325Z,23.88
2023-05-18T13:10:15.579Z,23.87
2023-05-18T13:12:49.709Z,23.99
2023-05-18T13:15:17.207Z,24.07
2023-05-18T13:17:52.494Z,24.20
2023-05-18T13:20:19.074Z,24.20
2023-05-18T13:22:45.638Z,24.22
2023-05-18T13:25:12.155Z,24.22
2023-05-18T13:27:38.653Z,24.30
2023-05-18T13:30:06.051Z,24.27
2023-05-18T13:32:33.671Z,24.46
2023-05-18T13:35:00.179Z,24.55
2023-05-18T13:37:26.722Z,24.74
2023-05-18T13:39:53.117Z,24.85
2023-05-18T13:42:21.333Z,24.99
2023-05-18T13:44:48.142Z,24.74
2023-05-18T13:47:14.573Z,24.89
2023-05-18T13:49:41.012Z,24.95
2023-05-18T13:52:07.442Z,25.04
2023-05-18T13:54:33.878Z,25.11
2023-05-18T13:57:00.357Z,25.27
2023-05-18T13:59:27.611Z,25.43
2023-05-18T14:01:54.053Z,25.62
2023-05-18T14:04:20.516Z,25.30
2023-05-18T14:06:46.994Z,25.43
2023-05-18T14:09:13.429Z,25.61
2023-05-18T14:11:39.834Z,25.78
2023-05-18T14:14:06.663Z,25.94
2023-05-18T14:16:33.147Z,25.88
2023-05-18T14:18:59.632Z,25.80
2023-05-18T14:21:26.047Z,25.63
2023-05-18T14:23:52.461Z,25.66
2023-05-18T14:26:18.986Z,25.74
2023-05-18T14:28:46.257Z,25.57
2023-05-18T14:31:12.781Z,25.31
2023-05-18T14:33:39.287Z,25.00
2023-05-18T14:36:06.144Z,25.00
2023-05-18T14:38:32.658Z,25.08
2023-05-18T14:40:59.142Z,25.17
2023-05-18T14:43:25.666Z,25.32
2023-05-18T14:46:04.305Z,25.30
2023-05-18T14:48:34.921Z,25.62
2023-05-18T14:51:01.384Z,25.98
2023-05-18T14:53:27.825Z,26.21
2023-05-18T14:55:54.331Z,26.43
2023-05-18T14:58:20.832Z,26.66
2023-05-18T15:00:47.259Z,26.77
2023-05-18T15:03:14.404Z,26.87
2023-05-18T15:05:41.464Z,26.92
2023-05-18T15:08:07.884Z,27.02
2023-05-18T15:10:34.285Z,27.15
2023-05-18T15:13:00.729Z,27.21
2023-05-18T15:15:27.132Z,27.20
2023-05-18T15:17:53.732Z,27.25
2023-05-18T15:20:20.566Z,27.12
2023-05-18T15:22:47.030Z,27.01
2023-05-18T15:25:13.451Z,26.96
2023-05-18T15:27:39.940Z,26.97
2023-05-18T15:30:11.282Z,27.12
2023-05-18T15:32:38.734Z,27.20
2023-05-18T15:35:06.657Z,27.24
2023-05-18T15:37:33.420Z,27.36
2023-05-18T15:40:00.008Z,27.27
2023-05-18T15:42:27.129Z,27.31
2023-05-18T15:44:53.677Z,27.44
2023-05-18T15:47:20.124Z,27.51
2023-05-18T15:49:46.555Z,27.56
2023-05-18T15:52:12.983Z,27.64
2023-05-18T15:54:39.415Z,27.80
2023-05-18T15:57:06.162Z,27.94
2023-05-18T15:59:32.582Z,28.08
2023-05-18T16:01:59.059Z,28.15
2023-05-18T16:04:25.635Z,27.94
2023-05-18T16:06:52.102Z,27.85
2023-05-18T16:09:18.535Z,27.63
2023-05-18T16:11:44.966Z,27.64
2023-05-18T16:14:11.418Z,27.55
2023-05-18T16:16:37.890Z,27.58
2023-05-18T16:19:05.510Z,27.51
2023-05-18T16:21:32.052Z,27.29
2023-05-18T16:23:58.662Z,27.35
2023-05-18T16:26:26.134Z,27.32
2023-05-18T16:28:52.586Z,27.29
2023-05-18T16:31:19.161Z,27.15
2023-05-18T16:33:45.717Z,26.76
2023-05-18T16:36:12.501Z,26.36
2023-05-18T16:38:39.224Z,25.86
2023-05-18T16:41:06.464Z,25.33
2023-05-18T16:43:33.724Z,24.92
2023-05-18T16:46:00.242Z,24.47
2023-05-18T16:48:26.997Z,24.12
2023-05-18T16:50:53.545Z,23.88
2023-05-18T16:53:19.993Z,24.36
2023-05-18T16:55:46.524Z,24.60
2023-05-18T16:58:12.989Z,25.42
2023-05-18T17:00:39.460Z,25.77
2023-05-18T17:03:06.540Z,26.02
2023-05-18T17:05:34.585Z,26.14
2023-05-18T17:08:01.062Z,26.24
2023-05-18T17:10:27.531Z,26.37
2023-05-18T17:12:54.440Z,26.42
2023-05-18T17:15:20.871Z,26.33
2023-05-18T17:17:47.425Z,26.16
2023-05-18T17:20:14.010Z,26.21
2023-05-18T17:22:40.472Z,26.05
2023-05-18T17:25:07.695Z,26.01
2023-05-18T17:27:34.192Z,25.53
2023-05-18T17:30:00.832Z,25.54
2023-05-18T17:32:27.260Z,25.45
2023-05-18T17:34:53.702Z,25.42
2023-05-18T17:37:20.393Z,25.08
2023-05-18T17:39:46.877Z,24.64
2023-05-18T17:42:13.341Z,24.20
2023-05-18T17:44:40.125Z,23.73
2023-05-18T17:47:06.703Z,23.26
2023-05-18T17:49:33.506Z,22.92
2023-05-18T17:51:59.997Z,22.56
2023-05-18T17:54:26.474Z,22.15
2023-05-18T17:56:53.038Z,21.84
2023-05-18T17:59:19.477Z,21.59
2023-05-18T18:01:46.191Z,21.36
2023-05-18T18:04:12.659Z,21.67
2023-05-18T18:06:39.349Z,21.33
2023-05-18T18:09:05.924Z,21.08
2023-05-18T18:11:32.480Z,20.91
2023-05-18T18:13:59.629Z,20.71
2023-05-18T18:16:26.238Z,20.54
2023-05-18T18:18:52.919Z,20.33
2023-05-18T18:21:19.630Z,20.14
2023-05-18T18:23:46.146Z,19.95
2023-05-18T18:26:12.687Z,19.73
2023-05-18T18:28:39.336Z,19.52
2023-05-18T18:31:05.944Z,19.31
2023-05-18T18:33:32.927Z,19.14
2023-05-18T18:35:59.552Z,18.89
2023-05-18T18:38:28.996Z,18.76
2023-05-18T18:41:01.624Z,18.68
2023-05-18T18:43:28.622Z,18.60
2023-05-18T18:45:56.972Z,18.53
2023-05-18T18:48:23.887Z,18.36
2023-05-18T18:50:50.443Z,18.28
2023-05-18T18:53:17.235Z,18.17
2023-05-18T18:55:43.736Z,18.03
2023-05-18T18:58:10.303Z,17.91
2023-05-18T19:00:36.902Z,17.82
2023-05-18T19:03:04.054Z,17.69
2023-05-18T19:05:31.300Z,17.56
2023-05-18T19:07:58.059Z,17.45
2023-05-18T19:10:25.406Z,17.32
2023-05-18T19:12:51.878Z,17.23
2023-05-18T19:15:18.701Z,17.11
2023-05-18T19:17:52.028Z,17.00
2023-05-18T19:20:18.806Z,16.89
2023-05-18T19:22:45.216Z,16.81
2023-05-18T19:25:11.671Z,16.76
2023-05-18T19:27:38.218Z,16.70
2023-05-18T19:30:05.898Z,16.60
2023-05-18T19:32:32.515Z,16.54
2023-05-18T19:34:59.070Z,16.46
2023-05-18T19:37:25.598Z,16.44
2023-05-18T19:39:52.121Z,16.41
2023-05-18T19:42:18.576Z,16.38
2023-05-18T19:44:45.018Z,16.33
2023-05-18T19:47:11.668Z,16.26
2023-05-18T19:49:38.089Z,16.20
2023-05-18T19:52:08.154Z,16.14
2023-05-18T19:54:38.343Z,16.06
2023-05-18T19:57:05.098Z,15.98
2023-05-18T19:59:31.601Z,15.91
2023-05-18T20:01:59.338Z,15.87
2023-05-18T20:04:28.366Z,15.82
2023-05-18T20:06:58.809Z,15.76
2023-05-18T20:09:25.914Z,15.72
2023-05-18T20:11:53.302Z,15.67
2023-05-18T20:14:20.019Z,15.58
2023-05-18T20:16:46.531Z,15.55
2023-05-18T20:19:13.856Z,15.52
2023-05-18T20:21:41.216Z,15.46
2023-05-18T20:24:07.696Z,15.39
2023-05-18T20:26:34.230Z,15.34
2023-05-18T20:29:00.762Z,15.30
2023-05-18T20:31:27.247Z,15.24
2023-05-18T20:33:56.933Z,15.21
2023-05-18T20:36:25.186Z,15.13
2023-05-18T20:38:52.988Z,15.07
2023-05-18T20:41:19.906Z,15.03
2023-05-18T20:43:46.715Z,14.98
2023-05-18T20:46:16.001Z,14.93
2023-05-18T20:48:44.687Z,14.89
2023-05-18T20:51:15.570Z,14.88
2023-05-18T20:53:42.348Z,14.85
2023-05-18T20:56:08.899Z,14.83
2023-05-18T20:58:35.631Z,14.80
2023-05-18T21:01:06.965Z,14.76
2023-05-18T21:03:34.429Z,14.69
2023-05-18T21:06:04.400Z,14.64
2023-05-18T21:08:30.856Z,14.57
2023-05-18T21:10:57.286Z,14.50
2023-05-18T21:13:23.758Z,14.43
2023-05-18T21:15:50.272Z,14.35
2023-05-18T21:18:16.958Z,14.27
2023-05-18T21:20:43.761Z,14.19
2023-05-18T21:23:10.350Z,14.09
2023-05-18T21:25:36.875Z,13.99
2023-05-18T21:28:03.352Z,13.94
2023-05-18T21:30:32.167Z,13.87
2023-05-18T21:32:58.915Z,13.81
2023-05-18T21:35:25.500Z,13.74
2023-05-18T21:37:51.947Z,13.71
2023-05-18T21:40:18.406Z,13.67
2023-05-18T21:42:45.873Z,13.59
2023-05-18T21:45:13.426Z,13.47
2023-05-18T21:47:40.076Z,13.38
2023-05-18T21:50:07.210Z,13.27
2023-05-18T21:52:33.645Z,13.16
2023-05-18T21:55:00.231Z,13.07
2023-05-18T21:57:26.650Z,12.94
2023-05-18T21:59:53.110Z,12.85
2023-05-18T22:02:19.535Z,12.76
2023-05-18T22:04:45.955Z,12.67
2023-05-18T22:07:13.859Z,12.53
2023-05-18T22:09:40.454Z,12.44
2023-05-18T22:12:07.023Z,12.37
2023-05-18T22:14:33.576Z,12.31
2023-05-18T22:17:00.044Z,12.23
2023-05-18T22:19:26.689Z,12.12
2023-05-18T22:21:53.820Z,12.00
2023-05-18T22:24:20.444Z,11.91
2023-05-18T22:26:46.938Z,11.82
2023-05-18T22:29:13.461Z,11.73
2023-05-18T22:31:40.006Z,11.66
2023-05-18T22:34:06.513Z,11.58
2023-05-18T22:36:32.978Z,11.52
2023-05-18T22:38:59.434Z,11.44
2023-05-18T22:41:26.907Z,11.38
2023-05-18T22:43:53.359Z,11.35
2023-05-18T22:46:19.877Z,11.32
2023-05-18T22:48:46.323Z,11.30
2023-05-18T22:51:12.779Z,11.27
2023-05-18T22:53:39.212Z,11.23
2023-05-18T22:56:07.032Z,11.17
2023-05-18T22:58:33.796Z,11.15
2023-05-18T23:01:00.404Z,11.11
2023-05-18T23:03:26.899Z,11.07
2023-05-18T23:05:53.435Z,11.03
2023-05-18T23:08:20.369Z,10.98
2023-05-18T23:10:48.025Z,10.93
2023-05-18T23:13:17.383Z,10.86
2023-05-18T23:15:44.359Z,10.84
2023-05-18T23:18:12.489Z,10.79
2023-05-18T23:20:39.187Z,10.74
2023-05-18T23:23:05.888Z,10.69
2023-05-18T23:25:32.387Z,10.68
2023-05-18T23:27:58.860Z,10.63
2023-05-18T23:30:25.361Z,10.52
2023-05-18T23:32:53.030Z,10.47
2023-05-18T23:35:19.930Z,10.45
2023-05-18T23:37:49.792Z,10.42
2023-05-18T23:40:18.272Z,10.39
2023-05-18T23:42:45.388Z,10.33
2023-05-18T23:45:12.574Z,10.30
2023-05-18T23:47:39.362Z,10.24
2023-05-18T23:50:06.603Z,10.23
2023-05-18T23:52:34.743Z,10.21
2023-05-18T23:55:02.758Z,10.19
2023-05-18T23:57:29.563Z,10.17
2023-05-18T23:59:56.349Z,10.15
